Archival Weather

Fukuoka

Fukuoka, Japan (RJFF)

Report from: Tuesday, August 16, 2022 9:30 AM JST
Current time: Sunday, November 27, 2022 5:52 PM JST

Current weather
Weather history
Weather forecast

Present weatherVCSH, light rain showers
Temperature30.0°C (86.0°F)
Heat index37.5°C (99.5°F)
Dew point26.0°C (78.8°F)
Winds 13 kts (6.7 m/s, 15 mph) South-Southeast (150°)
Visibility6.2 mi. (10 km)
Clouds Few clouds 800 ft. (244 m)
Scattered clouds 3,500 ft. (1,067 m)
Ceiling: Broken clouds 4,500 ft. (1,372 m)
Altimeter29.74 in.Hg (1007 mB)
Relative humidity79 %
Density altitude2,377 ft. (724 m)
Flight conditions Visual Meteorological Conditions
Raw dataRJFF 160030Z 15013KT 9999 VCSH FEW008 SCT035 BKN045 30/26 Q1007 TEMPO 4000 -SHRA BR
An error has occurred. This application may no longer respond until reloaded. Reload 🗙